createdAt,value
2018-11-20T00:02:53.886Z,29.00
2018-11-20T00:10:20.785Z,32.97
2018-11-20T00:17:47.553Z,29.73
2018-11-20T00:25:16.346Z,29.47
2018-11-20T00:32:44.977Z,27.93
2018-11-20T00:40:13.397Z,28.50
2018-11-20T00:47:40.228Z,28.00
2018-11-20T00:55:07.980Z,24.07
2018-11-20T01:02:35.364Z,28.93
2018-11-20T01:10:02.820Z,28.37
2018-11-20T01:17:31.502Z,26.43
2018-11-20T01:23:07.739Z,28.87
2018-11-20T01:28:32.033Z,30.40
2018-11-20T01:36:00.296Z,24.20
2018-11-20T01:41:17.659Z,33.83
2018-11-20T01:48:46.782Z,31.57
2018-11-20T01:56:14.097Z,33.93
2018-11-20T02:03:42.732Z,31.93
2018-11-20T02:11:12.730Z,26.60
2018-11-20T02:18:43.634Z,33.13
2018-11-20T02:26:08.963Z,29.07
2018-11-20T02:33:37.838Z,31.07
2018-11-20T02:38:59.034Z,29.50
2018-11-20T02:46:27.333Z,31.87
2018-11-20T02:53:56.280Z,33.47
2018-11-20T03:01:23.669Z,31.00
2018-11-20T03:08:51.048Z,30.00
2018-11-20T03:16:18.384Z,32.33
2018-11-20T03:23:46.951Z,32.40
2018-11-20T03:31:13.972Z,32.40
2018-11-20T03:38:42.481Z,33.87
2018-11-20T03:46:09.476Z,36.47
2018-11-20T03:53:36.866Z,38.77
2018-11-20T04:01:05.585Z,28.30
2018-11-20T04:08:34.225Z,29.73
2018-11-20T04:16:03.244Z,28.93
2018-11-20T04:23:32.338Z,36.60
2018-11-20T04:30:59.329Z,30.83
2018-11-20T04:38:27.872Z,32.30
2018-11-20T04:45:56.286Z,33.03
2018-11-20T04:53:22.516Z,29.13
2018-11-20T05:00:51.028Z,31.10
2018-11-20T05:08:18.185Z,32.17
2018-11-20T05:15:45.925Z,30.30
2018-11-20T05:23:14.173Z,33.30
2018-11-20T05:30:42.674Z,37.73
2018-11-20T05:38:09.641Z,33.17
2018-11-20T05:45:37.057Z,36.10
2018-11-20T05:53:04.409Z,36.97
2018-11-20T06:00:33.643Z,32.10
2018-11-20T06:08:02.606Z,33.27
2018-11-20T06:15:32.490Z,33.80
2018-11-20T06:23:00.863Z,34.87
2018-11-20T06:30:29.659Z,34.43
2018-11-20T06:37:58.130Z,31.20
2018-11-20T06:45:25.798Z,28.70
2018-11-20T06:52:54.386Z,32.87
2018-11-20T07:00:23.765Z,33.23
2018-11-20T07:07:50.564Z,33.67
2018-11-20T07:15:19.020Z,29.60
2018-11-20T07:22:46.751Z,33.73
2018-11-20T07:30:13.864Z,32.23
2018-11-20T07:37:42.647Z,31.03
2018-11-20T07:45:09.393Z,28.33
2018-11-20T07:52:35.703Z,30.17
2018-11-20T08:00:04.662Z,33.53
2018-11-20T08:07:33.746Z,30.57
2018-11-20T08:15:02.881Z,32.20
2018-11-20T08:22:32.527Z,31.37
2018-11-20T08:29:59.801Z,31.40
2018-11-20T08:37:30.221Z,33.13
2018-11-20T08:42:55.871Z,31.37
2018-11-20T08:50:25.208Z,35.07
2018-11-20T08:57:52.962Z,29.87
2018-11-20T09:05:20.059Z,32.73
2018-11-20T09:12:49.070Z,30.13
2018-11-20T09:20:18.430Z,31.37
2018-11-20T09:27:45.019Z,33.03
2018-11-20T09:35:12.158Z,33.30
2018-11-20T09:42:41.010Z,28.47
2018-11-20T09:50:09.643Z,32.10
2018-11-20T09:57:38.748Z,29.27
2018-11-20T10:05:06.245Z,29.77
2018-11-20T10:12:35.116Z,30.13
2018-11-20T10:20:04.346Z,30.37
2018-11-20T10:27:31.755Z,28.13
2018-11-20T10:35:00.309Z,32.17
2018-11-20T10:42:27.143Z,29.43
2018-11-20T10:49:55.574Z,29.17
2018-11-20T10:57:22.339Z,28.90
2018-11-20T11:04:50.860Z,29.50
2018-11-20T11:12:19.418Z,26.77
2018-11-20T11:19:45.340Z,26.43
2018-11-20T11:27:13.790Z,28.60
2018-11-20T11:32:31.523Z,25.20
2018-11-20T11:39:57.842Z,26.27
2018-11-20T11:47:24.804Z,27.07
2018-11-20T11:54:53.497Z,25.77
2018-11-20T12:09:47.167Z,26.30
2018-11-20T12:17:16.381Z,29.93
2018-11-20T12:24:42.364Z,24.97
2018-11-20T12:29:58.990Z,24.37
2018-11-20T12:37:26.509Z,23.37
2018-11-20T12:44:54.396Z,23.97
2018-11-20T12:52:24.007Z,26.97
2018-11-20T12:59:50.179Z,25.60
2018-11-20T13:07:17.796Z,26.20
2018-11-20T13:14:46.406Z,27.17
2018-11-20T13:22:15.484Z,24.23
2018-11-20T13:30:23.724Z,21.20
2018-11-20T13:37:51.888Z,24.63
2018-11-20T13:45:18.705Z,26.90
2018-11-20T13:52:47.545Z,26.53
2018-11-20T14:00:13.040Z,29.93
2018-11-20T14:07:40.160Z,26.93
2018-11-20T14:15:08.786Z,25.70
2018-11-20T14:22:35.162Z,26.37
2018-11-20T14:30:02.119Z,26.17
2018-11-20T14:37:29.059Z,28.20
2018-11-20T14:44:59.079Z,27.97
2018-11-20T14:52:27.383Z,23.40
2018-11-20T14:59:54.485Z,25.50
2018-11-20T15:07:21.808Z,25.43
2018-11-20T15:14:48.764Z,27.20
2018-11-20T15:22:16.443Z,29.70
2018-11-20T15:29:43.289Z,30.60
2018-11-20T15:37:10.307Z,28.57
2018-11-20T15:44:37.932Z,31.27
2018-11-20T15:52:07.296Z,32.20
2018-11-20T15:59:36.468Z,29.90
2018-11-20T16:07:03.757Z,27.63
2018-11-20T16:14:33.387Z,28.30
2018-11-20T16:22:02.208Z,28.63
2018-11-20T16:29:31.063Z,47.30
2018-11-20T16:36:59.520Z,30.53
2018-11-20T16:44:29.777Z,27.27
2018-11-20T16:51:58.746Z,31.33
2018-11-20T16:59:27.474Z,29.87
2018-11-20T17:09:27.938Z,29.67
2018-11-20T17:16:57.295Z,30.93
2018-11-20T17:24:24.658Z,30.17
2018-11-20T17:29:36.763Z,31.77
2018-11-20T17:37:03.822Z,29.97
2018-11-20T17:44:34.054Z,43.97
2018-11-20T17:52:00.600Z,30.17
2018-11-20T17:59:32.754Z,29.37
2018-11-20T18:07:04.939Z,35.97
2018-11-20T18:14:29.861Z,29.97
2018-11-20T18:21:56.885Z,40.50
2018-11-20T18:29:23.502Z,34.17
2018-11-20T18:36:51.294Z,32.80
2018-11-20T18:44:20.743Z,31.77
2018-11-20T18:51:49.022Z,27.17
2018-11-20T18:59:18.500Z,23.27
2018-11-20T19:06:46.316Z,28.93
2018-11-20T19:14:15.501Z,27.60
2018-11-20T19:29:14.531Z,27.80
2018-11-20T19:36:50.265Z,32.93
2018-11-20T19:44:18.695Z,31.73
2018-11-20T19:51:46.679Z,30.30
2018-11-20T19:59:14.908Z,29.13
2018-11-20T20:06:44.132Z,29.17
2018-11-20T20:14:16.901Z,30.70
2018-11-20T20:21:48.973Z,27.23
2018-11-20T20:29:18.451Z,23.37
2018-11-20T20:36:52.636Z,28.97
2018-11-20T20:44:23.546Z,29.70
2018-11-20T20:59:23.070Z,28.27
2018-11-20T21:06:53.174Z,29.30
2018-11-20T21:14:21.467Z,26.40
2018-11-20T21:21:51.321Z,26.17
2018-11-20T21:29:19.650Z,26.40
2018-11-20T21:36:48.838Z,30.40
2018-11-20T21:44:18.109Z,24.63
2018-11-20T21:50:35.129Z,26.30
2018-11-20T21:53:22.463Z,24.87
2018-11-20T21:56:11.492Z,22.83
2018-11-20T21:59:07.031Z,24.17
2018-11-20T22:01:55.806Z,25.87
2018-11-20T22:05:00.105Z,27.60
2018-11-20T22:07:49.244Z,24.80
2018-11-20T22:10:38.473Z,23.37
2018-11-20T22:13:28.127Z,22.80
2018-11-20T22:16:16.045Z,23.97
2018-11-20T22:19:10.694Z,24.83
2018-11-20T22:22:00.000Z,28.40
2018-11-20T22:24:47.869Z,26.00
2018-11-20T22:27:40.418Z,23.23
2018-11-20T22:30:41.270Z,24.30
2018-11-20T22:33:41.257Z,22.33
2018-11-20T22:36:36.871Z,25.27
2018-11-20T22:39:27.970Z,23.70
2018-11-20T22:42:15.730Z,22.40
2018-11-20T22:45:16.879Z,22.20
2018-11-20T22:48:13.523Z,25.73
2018-11-20T22:51:03.177Z,20.80
2018-11-20T22:53:52.050Z,21.87
2018-11-20T22:56:34.115Z,22.30
2018-11-20T22:59:41.154Z,20.33
2018-11-20T23:02:29.641Z,23.73
2018-11-20T23:05:15.587Z,22.50
2018-11-20T23:07:46.936Z,22.60
2018-11-20T23:10:39.246Z,29.87
2018-11-20T23:13:10.498Z,28.27
2018-11-20T23:15:42.490Z,27.77
2018-11-20T23:18:13.868Z,24.53
2018-11-20T23:20:45.289Z,22.77
2018-11-20T23:23:18.445Z,24.30
2018-11-20T23:25:50.007Z,26.43
2018-11-20T23:28:21.367Z,22.20
2018-11-20T23:30:53.738Z,25.13
2018-11-20T23:33:26.571Z,23.87
2018-11-20T23:35:56.648Z,21.10
2018-11-20T23:38:28.043Z,24.07
2018-11-20T23:40:59.841Z,23.17
2018-11-20T23:43:31.747Z,20.60
2018-11-20T23:46:06.859Z,22.20
2018-11-20T23:48:37.330Z,20.87
2018-11-20T23:51:07.085Z,21.30
2018-11-20T23:53:38.035Z,22.53
2018-11-20T23:56:08.474Z,19.60
2018-11-20T23:58:38.192Z,21.10
